CheckWX is a tool to help pilots better visualize weather data.  It is not intended as a substitute for an official pre-flight weather briefing.

08:28:06 UTC

KEND METAR
Vance AFB Airport
Enid, Oklahoma, USA
Current

32 mins ago

KEND 150756Z AUTO 26004KT 2 1/4SM BR CLR M02/M02 A3039 RMK AO2 SLP300 T10161016
Observed
Nov-15 @ 07:56 UTC
Wind
  • 260° at 4 KTS
Visibility
2 1/4 SM
Flight Rules
IFR
Conditions
Mist
Cloud Levels
  • Clear skies
Temperature
-2°C / 28°F
Dewpoint
-2°C / 28°F
Humidity
100%
Altimeter
30.39" Hg
Pressure
1029.12 hPa
Previous

2 hours ago

KEND 150656Z AUTO 26003KT 2 1/4SM BR CLR 00/00 A3040 RMK AO2 SLP302 T10021003
Observed
Nov-15 @ 06:56 UTC
Wind
  • 260° at 3 KTS
Visibility
2 1/4 SM
Flight Rules
IFR
Conditions
Mist
Cloud Levels
  • Clear skies
Temperature
-0°C / 32°F
Dewpoint
-0°C / 32°F
Humidity
100%
Altimeter
30.4" Hg
Pressure
1029.42 hPa
Previous

2 hours ago

KEND 150621Z AUTO 25003KT 2 1/2SM BR CLR 00/00 A3040 RMK AO2 VIS 2 1/2V3 VIS 1 1/2 RWY35C SLP303
Observed
Nov-15 @ 06:21 UTC
Wind
  • 250° at 3 KTS
Visibility
2 1/2 SM
Flight Rules
IFR
Conditions
Mist
Cloud Levels
  • Clear skies
Temperature
C / 32°F
Dewpoint
C / 32°F
Humidity
100%
Altimeter
30.4" Hg
Pressure
1029.42 hPa